Pisgah, Maryland
Current Conditions -  °F | °C
As of 6:56 PM on Wednesday 26 Nov 2014 (Local Time) from KNYG Reporting Station
Light Snow Light Snow  
Wind Chill: 30°   Ceiling: 8000
Heat Index: 37°   Visibility: 9mi
Dew Point: 33°   Wind: 10mph
Humidity: 86%   Direction: 340°NNW
Pressure: 29.98"   Gusts: NA
Location:  38.5236°N, 77.1913°W
Report Text: KNYG 262356Z AUTO 34009KT 9SM -SN FEW010 OVC080 03/01 A2998 RMK AO2 UPE2259SNB12 SLP152 P0000 60013 T00280006 10028 20017 51004 $
Loading
Personal Weather Stations






























Interactive Weather Map New forecast layout! Learn more

10-Day Weather Forecast

Advertisements
Track Severe Weather on mobile